Terminal Aerodrome Forecast
Issued by NWS

Home | Current Version | Previous Version | Text Only | Print | Product List | Glossary On
Versions: 1 2 3 4 5 6 7 8 9 10 11 12 13 14 15 16 17 18 19 20 21 22 23 24 25 26 27 28 29 30 31 32 33 34 35 36 37 38 39 40 41
000
FTAK31 PANC 251512 AAB
TAFADQ
TAF AMD
PADQ 251512Z 2515/2612 VRB03KT P6SM -SHRA SCT015 OVC030
      TEMPO 2515/2518 4SM -SHRA BR SCT004 BKN015
     FM252000 04006KT P6SM -RA SCT025 OVC040
     FM260800 31005KT P6SM SCT040 BKN080=

USA.gov is the U.S. government's official web portal to all federal, state and local government web resources and services.